sensor_id;sensor_type;location;lat;lon;timestamp;P1;durP1;ratioP1;P2;durP2;ratioP2
15708;SDS011;7954;51.914;8.420;2022-07-06T00:00:32;1.60;;;1.23;;
15708;SDS011;7954;51.914;8.420;2022-07-06T00:03:00;2.10;;;1.20;;
15708;SDS011;7954;51.914;8.420;2022-07-06T00:05:28;1.90;;;1.13;;
15708;SDS011;7954;51.914;8.420;2022-07-06T00:07:56;2.00;;;1.80;;
15708;SDS011;7954;51.914;8.420;2022-07-06T00:10:24;1.90;;;1.07;;
15708;SDS011;7954;51.914;8.420;2022-07-06T00:12:53;2.50;;;1.40;;
15708;SDS011;7954;51.914;8.420;2022-07-06T00:15:21;1.50;;;1.10;;
15708;SDS011;7954;51.914;8.420;2022-07-06T00:17:50;2.83;;;1.53;;
15708;SDS011;7954;51.914;8.420;2022-07-06T00:20:18;1.80;;;1.37;;
15708;SDS011;7954;51.914;8.420;2022-07-06T00:22:46;2.20;;;1.63;;
15708;SDS011;7954;51.914;8.420;2022-07-06T00:25:14;2.13;;;1.23;;
15708;SDS011;7954;51.914;8.420;2022-07-06T00:27:42;3.30;;;1.40;;
15708;SDS011;7954;51.914;8.420;2022-07-06T00:30:12;2.27;;;1.30;;
15708;SDS011;7954;51.914;8.420;2022-07-06T00:32:40;3.33;;;1.60;;
15708;SDS011;7954;51.914;8.420;2022-07-06T00:35:08;1.33;;;1.20;;
15708;SDS011;7954;51.914;8.420;2022-07-06T00:37:38;1.77;;;1.30;;
15708;SDS011;7954;51.914;8.420;2022-07-06T00:40:06;4.73;;;2.10;;
15708;SDS011;7954;51.914;8.420;2022-07-06T00:42:38;2.10;;;1.37;;
15708;SDS011;7954;51.914;8.420;2022-07-06T00:45:08;1.40;;;1.20;;
15708;SDS011;7954;51.914;8.420;2022-07-06T00:47:39;2.63;;;1.57;;
15708;SDS011;7954;51.914;8.420;2022-07-06T00:50:08;1.90;;;1.40;;
15708;SDS011;7954;51.914;8.420;2022-07-06T00:52:45;3.43;;;1.37;;
15708;SDS011;7954;51.914;8.420;2022-07-06T00:55:14;2.20;;;1.40;;
15708;SDS011;7954;51.914;8.420;2022-07-06T00:57:44;2.23;;;1.50;;
15708;SDS011;7954;51.914;8.420;2022-07-06T01:00:12;4.77;;;1.80;;
15708;SDS011;7954;51.914;8.420;2022-07-06T01:02:44;3.43;;;1.53;;
15708;SDS011;7954;51.914;8.420;2022-07-06T01:05:13;2.30;;;1.50;;
15708;SDS011;7954;51.914;8.420;2022-07-06T01:07:42;1.73;;;1.20;;
15708;SDS011;7954;51.914;8.420;2022-07-06T01:10:11;2.23;;;1.50;;
15708;SDS011;7954;51.914;8.420;2022-07-06T01:12:41;2.17;;;1.60;;
15708;SDS011;7954;51.914;8.420;2022-07-06T01:15:11;2.27;;;1.40;;
15708;SDS011;7954;51.914;8.420;2022-07-06T01:17:41;2.27;;;1.50;;
15708;SDS011;7954;51.914;8.420;2022-07-06T01:20:14;2.00;;;1.30;;
15708;SDS011;7954;51.914;8.420;2022-07-06T01:22:42;3.03;;;1.60;;
15708;SDS011;7954;51.914;8.420;2022-07-06T01:25:11;3.90;;;1.40;;
15708;SDS011;7954;51.914;8.420;2022-07-06T01:27:40;2.53;;;1.30;;
15708;SDS011;7954;51.914;8.420;2022-07-06T01:30:10;2.40;;;1.63;;
15708;SDS011;7954;51.914;8.420;2022-07-06T01:32:39;2.13;;;1.40;;
15708;SDS011;7954;51.914;8.420;2022-07-06T01:35:08;2.77;;;1.60;;
15708;SDS011;7954;51.914;8.420;2022-07-06T01:37:38;1.77;;;1.50;;
15708;SDS011;7954;51.914;8.420;2022-07-06T01:40:07;2.23;;;1.50;;
15708;SDS011;7954;51.914;8.420;2022-07-06T01:42:37;1.63;;;1.30;;
15708;SDS011;7954;51.914;8.420;2022-07-06T01:45:06;3.90;;;1.70;;
15708;SDS011;7954;51.914;8.420;2022-07-06T01:47:34;1.40;;;1.30;;
15708;SDS011;7954;51.914;8.420;2022-07-06T01:50:04;1.50;;;1.40;;
15708;SDS011;7954;51.914;8.420;2022-07-06T01:52:33;1.83;;;1.33;;
15708;SDS011;7954;51.914;8.420;2022-07-06T01:55:03;1.40;;;1.30;;
15708;SDS011;7954;51.914;8.420;2022-07-06T01:57:31;3.97;;;1.80;;
15708;SDS011;7954;51.914;8.420;2022-07-06T01:59:59;2.10;;;1.57;;
15708;SDS011;7954;51.914;8.420;2022-07-06T02:02:27;2.40;;;1.60;;
15708;SDS011;7954;51.914;8.420;2022-07-06T02:04:55;2.23;;;1.50;;
15708;SDS011;7954;51.914;8.420;2022-07-06T02:07:23;3.17;;;1.70;;
15708;SDS011;7954;51.914;8.420;2022-07-06T02:09:50;3.63;;;1.90;;
15708;SDS011;7954;51.914;8.420;2022-07-06T02:12:20;3.43;;;1.67;;
15708;SDS011;7954;51.914;8.420;2022-07-06T02:14:48;1.93;;;1.70;;
15708;SDS011;7954;51.914;8.420;2022-07-06T02:17:16;4.43;;;1.80;;
15708;SDS011;7954;51.914;8.420;2022-07-06T02:19:43;2.20;;;1.47;;
15708;SDS011;7954;51.914;8.420;2022-07-06T02:22:11;2.93;;;1.87;;
15708;SDS011;7954;51.914;8.420;2022-07-06T02:24:39;2.70;;;1.60;;
15708;SDS011;7954;51.914;8.420;2022-07-06T02:27:07;2.33;;;1.47;;
15708;SDS011;7954;51.914;8.420;2022-07-06T02:29:38;2.83;;;1.33;;
15708;SDS011;7954;51.914;8.420;2022-07-06T02:32:07;2.90;;;1.77;;
15708;SDS011;7954;51.914;8.420;2022-07-06T02:34:35;2.03;;;1.50;;
15708;SDS011;7954;51.914;8.420;2022-07-06T02:37:03;4.87;;;2.00;;
15708;SDS011;7954;51.914;8.420;2022-07-06T02:39:31;1.87;;;1.47;;
15708;SDS011;7954;51.914;8.420;2022-07-06T02:41:59;2.03;;;1.60;;
15708;SDS011;7954;51.914;8.420;2022-07-06T02:44:27;2.30;;;1.80;;
15708;SDS011;7954;51.914;8.420;2022-07-06T02:46:56;2.87;;;1.60;;
15708;SDS011;7954;51.914;8.420;2022-07-06T02:49:24;2.10;;;1.70;;
15708;SDS011;7954;51.914;8.420;2022-07-06T02:51:52;1.97;;;1.67;;
15708;SDS011;7954;51.914;8.420;2022-07-06T02:54:20;1.70;;;1.57;;
15708;SDS011;7954;51.914;8.420;2022-07-06T02:56:48;2.50;;;1.60;;
15708;SDS011;7954;51.914;8.420;2022-07-06T02:59:19;3.03;;;1.67;;
15708;SDS011;7954;51.914;8.420;2022-07-06T03:01:47;1.87;;;1.67;;
15708;SDS011;7954;51.914;8.420;2022-07-06T03:04:16;2.33;;;1.30;;
15708;SDS011;7954;51.914;8.420;2022-07-06T03:06:44;2.07;;;1.60;;
15708;SDS011;7954;51.914;8.420;2022-07-06T03:09:13;3.00;;;1.70;;
15708;SDS011;7954;51.914;8.420;2022-07-06T03:11:40;1.83;;;1.50;;
15708;SDS011;7954;51.914;8.420;2022-07-06T03:14:08;2.40;;;1.90;;
15708;SDS011;7954;51.914;8.420;2022-07-06T03:16:36;2.83;;;2.00;;
15708;SDS011;7954;51.914;8.420;2022-07-06T03:19:04;3.87;;;2.10;;
15708;SDS011;7954;51.914;8.420;2022-07-06T03:21:33;2.37;;;1.70;;
15708;SDS011;7954;51.914;8.420;2022-07-06T03:24:01;2.40;;;1.90;;
15708;SDS011;7954;51.914;8.420;2022-07-06T03:26:30;3.63;;;2.10;;
15708;SDS011;7954;51.914;8.420;2022-07-06T03:28:59;2.60;;;1.90;;
15708;SDS011;7954;51.914;8.420;2022-07-06T03:31:27;3.03;;;1.83;;
15708;SDS011;7954;51.914;8.420;2022-07-06T03:33:55;3.33;;;2.20;;
15708;SDS011;7954;51.914;8.420;2022-07-06T03:36:22;3.47;;;2.30;;
15708;SDS011;7954;51.914;8.420;2022-07-06T03:38:52;2.40;;;2.00;;
15708;SDS011;7954;51.914;8.420;2022-07-06T03:41:20;2.77;;;2.20;;
15708;SDS011;7954;51.914;8.420;2022-07-06T03:43:48;2.83;;;2.03;;
15708;SDS011;7954;51.914;8.420;2022-07-06T03:46:16;3.20;;;2.23;;
15708;SDS011;7954;51.914;8.420;2022-07-06T03:48:45;3.10;;;2.13;;
15708;SDS011;7954;51.914;8.420;2022-07-06T03:51:13;1.97;;;1.80;;
15708;SDS011;7954;51.914;8.420;2022-07-06T03:53:41;2.80;;;1.93;;
15708;SDS011;7954;51.914;8.420;2022-07-06T03:56:10;5.47;;;2.40;;
15708;SDS011;7954;51.914;8.420;2022-07-06T03:59:00;4.07;;;1.83;;
15708;SDS011;7954;51.914;8.420;2022-07-06T04:01:30;3.00;;;1.97;;
15708;SDS011;7954;51.914;8.420;2022-07-06T04:03:58;2.13;;;1.93;;
15708;SDS011;7954;51.914;8.420;2022-07-06T04:06:26;12.33;;;2.10;;
15708;SDS011;7954;51.914;8.420;2022-07-06T04:08:53;2.57;;;1.70;;
15708;SDS011;7954;51.914;8.420;2022-07-06T04:11:23;2.37;;;2.17;;
15708;SDS011;7954;51.914;8.420;2022-07-06T04:13:51;3.40;;;1.80;;
15708;SDS011;7954;51.914;8.420;2022-07-06T04:16:21;3.37;;;2.20;;
15708;SDS011;7954;51.914;8.420;2022-07-06T04:18:49;3.97;;;1.93;;
15708;SDS011;7954;51.914;8.420;2022-07-06T04:21:17;3.30;;;2.20;;
15708;SDS011;7954;51.914;8.420;2022-07-06T04:23:46;3.23;;;2.10;;
15708;SDS011;7954;51.914;8.420;2022-07-06T04:26:14;2.57;;;2.37;;
15708;SDS011;7954;51.914;8.420;2022-07-06T04:28:44;4.10;;;3.07;;
15708;SDS011;7954;51.914;8.420;2022-07-06T04:31:13;5.07;;;3.17;;
15708;SDS011;7954;51.914;8.420;2022-07-06T04:33:42;3.40;;;3.10;;
15708;SDS011;7954;51.914;8.420;2022-07-06T04:36:10;4.40;;;2.87;;
15708;SDS011;7954;51.914;8.420;2022-07-06T04:38:38;5.77;;;2.90;;
15708;SDS011;7954;51.914;8.420;2022-07-06T04:41:06;5.67;;;2.90;;
15708;SDS011;7954;51.914;8.420;2022-07-06T04:43:34;4.33;;;2.40;;
15708;SDS011;7954;51.914;8.420;2022-07-06T04:46:04;4.23;;;2.93;;
15708;SDS011;7954;51.914;8.420;2022-07-06T04:48:31;3.97;;;2.73;;
15708;SDS011;7954;51.914;8.420;2022-07-06T04:51:02;2.97;;;2.60;;
15708;SDS011;7954;51.914;8.420;2022-07-06T04:53:30;2.80;;;2.30;;
15708;SDS011;7954;51.914;8.420;2022-07-06T04:55:58;4.47;;;3.33;;
15708;SDS011;7954;51.914;8.420;2022-07-06T04:58:26;4.73;;;3.50;;
15708;SDS011;7954;51.914;8.420;2022-07-06T05:00:54;5.00;;;4.50;;
15708;SDS011;7954;51.914;8.420;2022-07-06T05:03:24;6.37;;;4.70;;
15708;SDS011;7954;51.914;8.420;2022-07-06T05:05:52;6.13;;;4.07;;
15708;SDS011;7954;51.914;8.420;2022-07-06T05:08:20;6.40;;;5.67;;
15708;SDS011;7954;51.914;8.420;2022-07-06T05:10:48;4.63;;;4.23;;
15708;SDS011;7954;51.914;8.420;2022-07-06T05:13:18;3.27;;;2.77;;
15708;SDS011;7954;51.914;8.420;2022-07-06T05:15:46;4.57;;;3.30;;
15708;SDS011;7954;51.914;8.420;2022-07-06T05:18:14;3.10;;;2.80;;
15708;SDS011;7954;51.914;8.420;2022-07-06T05:20:43;3.63;;;2.60;;
15708;SDS011;7954;51.914;8.420;2022-07-06T05:23:11;3.23;;;2.10;;
15708;SDS011;7954;51.914;8.420;2022-07-06T05:25:41;2.63;;;1.90;;
15708;SDS011;7954;51.914;8.420;2022-07-06T05:28:09;2.87;;;2.27;;
15708;SDS011;7954;51.914;8.420;2022-07-06T05:30:37;4.73;;;3.30;;
15708;SDS011;7954;51.914;8.420;2022-07-06T05:33:05;3.93;;;2.47;;
15708;SDS011;7954;51.914;8.420;2022-07-06T05:35:33;4.17;;;2.40;;
15708;SDS011;7954;51.914;8.420;2022-07-06T05:38:19;3.57;;;2.10;;
15708;SDS011;7954;51.914;8.420;2022-07-06T05:40:49;3.80;;;2.20;;
15708;SDS011;7954;51.914;8.420;2022-07-06T05:43:17;3.27;;;1.60;;
15708;SDS011;7954;51.914;8.420;2022-07-06T05:45:45;2.73;;;1.90;;
15708;SDS011;7954;51.914;8.420;2022-07-06T05:48:14;4.13;;;2.20;;
15708;SDS011;7954;51.914;8.420;2022-07-06T05:50:59;2.40;;;2.20;;
15708;SDS011;7954;51.914;8.420;2022-07-06T05:53:28;3.87;;;2.07;;
15708;SDS011;7954;51.914;8.420;2022-07-06T05:55:56;3.43;;;2.10;;
15708;SDS011;7954;51.914;8.420;2022-07-06T05:58:26;4.07;;;1.90;;
15708;SDS011;7954;51.914;8.420;2022-07-06T06:00:53;3.03;;;1.80;;
15708;SDS011;7954;51.914;8.420;2022-07-06T06:03:21;3.23;;;1.80;;
15708;SDS011;7954;51.914;8.420;2022-07-06T06:05:50;3.10;;;1.97;;
15708;SDS011;7954;51.914;8.420;2022-07-06T06:08:18;2.40;;;1.60;;
15708;SDS011;7954;51.914;8.420;2022-07-06T06:10:49;2.67;;;1.57;;
15708;SDS011;7954;51.914;8.420;2022-07-06T06:13:17;2.77;;;2.00;;
15708;SDS011;7954;51.914;8.420;2022-07-06T06:15:45;4.23;;;2.60;;
15708;SDS011;7954;51.914;8.420;2022-07-06T06:18:13;3.70;;;2.00;;
15708;SDS011;7954;51.914;8.420;2022-07-06T06:20:43;2.87;;;2.07;;
15708;SDS011;7954;51.914;8.420;2022-07-06T06:23:11;2.57;;;1.40;;
15708;SDS011;7954;51.914;8.420;2022-07-06T06:25:40;3.93;;;1.57;;
15708;SDS011;7954;51.914;8.420;2022-07-06T06:28:10;3.53;;;1.37;;
15708;SDS011;7954;51.914;8.420;2022-07-06T06:30:38;3.87;;;1.77;;
15708;SDS011;7954;51.914;8.420;2022-07-06T06:33:07;3.57;;;1.73;;
15708;SDS011;7954;51.914;8.420;2022-07-06T06:35:38;8.97;;;3.80;;
15708;SDS011;7954;51.914;8.420;2022-07-06T06:38:10;2.97;;;2.30;;
15708;SDS011;7954;51.914;8.420;2022-07-06T06:40:39;4.90;;;2.03;;
15708;SDS011;7954;51.914;8.420;2022-07-06T06:43:07;3.43;;;1.60;;
15708;SDS011;7954;51.914;8.420;2022-07-06T06:45:37;4.33;;;1.77;;
15708;SDS011;7954;51.914;8.420;2022-07-06T06:48:05;2.57;;;1.73;;
15708;SDS011;7954;51.914;8.420;2022-07-06T06:50:49;4.13;;;1.70;;
15708;SDS011;7954;51.914;8.420;2022-07-06T06:53:17;4.30;;;1.60;;
15708;SDS011;7954;51.914;8.420;2022-07-06T06:55:45;3.47;;;1.93;;
15708;SDS011;7954;51.914;8.420;2022-07-06T06:58:13;2.10;;;1.60;;
15708;SDS011;7954;51.914;8.420;2022-07-06T07:00:43;3.13;;;1.80;;
15708;SDS011;7954;51.914;8.420;2022-07-06T07:03:11;2.10;;;1.40;;
15708;SDS011;7954;51.914;8.420;2022-07-06T07:05:39;2.37;;;1.57;;
15708;SDS011;7954;51.914;8.420;2022-07-06T07:08:07;2.63;;;1.40;;
15708;SDS011;7954;51.914;8.420;2022-07-06T07:10:35;1.93;;;1.50;;
15708;SDS011;7954;51.914;8.420;2022-07-06T07:13:03;2.33;;;1.70;;
15708;SDS011;7954;51.914;8.420;2022-07-06T07:15:30;4.13;;;1.87;;
15708;SDS011;7954;51.914;8.420;2022-07-06T07:18:00;2.17;;;1.50;;
15708;SDS011;7954;51.914;8.420;2022-07-06T07:20:28;3.07;;;1.70;;
15708;SDS011;7954;51.914;8.420;2022-07-06T07:22:57;2.30;;;1.40;;
15708;SDS011;7954;51.914;8.420;2022-07-06T07:25:26;3.13;;;1.80;;
15708;SDS011;7954;51.914;8.420;2022-07-06T07:27:54;2.77;;;1.67;;
15708;SDS011;7954;51.914;8.420;2022-07-06T07:30:22;3.10;;;2.10;;
15708;SDS011;7954;51.914;8.420;2022-07-06T07:32:50;2.80;;;2.17;;
15708;SDS011;7954;51.914;8.420;2022-07-06T07:35:19;4.10;;;2.30;;
15708;SDS011;7954;51.914;8.420;2022-07-06T07:37:48;2.90;;;1.60;;
15708;SDS011;7954;51.914;8.420;2022-07-06T07:40:16;1.97;;;1.40;;
15708;SDS011;7954;51.914;8.420;2022-07-06T07:42:44;3.53;;;1.40;;
15708;SDS011;7954;51.914;8.420;2022-07-06T07:45:12;3.33;;;1.30;;
15708;SDS011;7954;51.914;8.420;2022-07-06T07:47:40;3.30;;;1.60;;
15708;SDS011;7954;51.914;8.420;2022-07-06T07:50:09;2.40;;;1.40;;
15708;SDS011;7954;51.914;8.420;2022-07-06T07:52:40;3.93;;;1.27;;
15708;SDS011;7954;51.914;8.420;2022-07-06T07:55:08;3.60;;;1.57;;
15708;SDS011;7954;51.914;8.420;2022-07-06T07:57:56;2.27;;;1.10;;
15708;SDS011;7954;51.914;8.420;2022-07-06T08:00:24;3.80;;;1.47;;
15708;SDS011;7954;51.914;8.420;2022-07-06T08:02:53;2.90;;;1.43;;
15708;SDS011;7954;51.914;8.420;2022-07-06T08:05:21;5.47;;;1.50;;
15708;SDS011;7954;51.914;8.420;2022-07-06T08:07:50;3.13;;;1.30;;
15708;SDS011;7954;51.914;8.420;2022-07-06T08:10:20;3.33;;;1.23;;
15708;SDS011;7954;51.914;8.420;2022-07-06T08:12:48;3.47;;;1.40;;
15708;SDS011;7954;51.914;8.420;2022-07-06T08:15:17;2.23;;;1.10;;
15708;SDS011;7954;51.914;8.420;2022-07-06T08:17:45;2.17;;;1.30;;
15708;SDS011;7954;51.914;8.420;2022-07-06T08:20:13;1.70;;;1.03;;
15708;SDS011;7954;51.914;8.420;2022-07-06T08:22:41;1.43;;;1.10;;
15708;SDS011;7954;51.914;8.420;2022-07-06T08:25:11;3.10;;;1.10;;
15708;SDS011;7954;51.914;8.420;2022-07-06T08:27:39;2.10;;;1.20;;
15708;SDS011;7954;51.914;8.420;2022-07-06T08:30:08;3.20;;;1.10;;
15708;SDS011;7954;51.914;8.420;2022-07-06T08:32:38;3.80;;;1.40;;
15708;SDS011;7954;51.914;8.420;2022-07-06T08:35:26;1.23;;;1.03;;
15708;SDS011;7954;51.914;8.420;2022-07-06T08:37:54;1.90;;;0.90;;
15708;SDS011;7954;51.914;8.420;2022-07-06T08:40:24;1.77;;;0.90;;
15708;SDS011;7954;51.914;8.420;2022-07-06T08:42:53;2.63;;;1.13;;
15708;SDS011;7954;51.914;8.420;2022-07-06T08:45:22;1.73;;;0.87;;
15708;SDS011;7954;51.914;8.420;2022-07-06T08:47:51;1.20;;;0.83;;
15708;SDS011;7954;51.914;8.420;2022-07-06T08:50:22;4.53;;;1.27;;
15708;SDS011;7954;51.914;8.420;2022-07-06T08:52:53;1.50;;;1.00;;
15708;SDS011;7954;51.914;8.420;2022-07-06T08:55:23;4.60;;;1.10;;
15708;SDS011;7954;51.914;8.420;2022-07-06T08:57:52;2.93;;;1.20;;
15708;SDS011;7954;51.914;8.420;2022-07-06T09:00:22;2.63;;;1.30;;
15708;SDS011;7954;51.914;8.420;2022-07-06T09:02:51;2.07;;;1.10;;
15708;SDS011;7954;51.914;8.420;2022-07-06T09:05:23;1.60;;;0.90;;
15708;SDS011;7954;51.914;8.420;2022-07-06T09:07:52;1.30;;;1.00;;
15708;SDS011;7954;51.914;8.420;2022-07-06T09:10:27;2.43;;;1.03;;
15708;SDS011;7954;51.914;8.420;2022-07-06T09:13:01;1.77;;;0.90;;
15708;SDS011;7954;51.914;8.420;2022-07-06T09:15:30;2.03;;;1.27;;
15708;SDS011;7954;51.914;8.420;2022-07-06T09:17:58;3.03;;;1.50;;
15708;SDS011;7954;51.914;8.420;2022-07-06T09:20:26;3.43;;;1.30;;
15708;SDS011;7954;51.914;8.420;2022-07-06T09:22:57;3.53;;;1.40;;
15708;SDS011;7954;51.914;8.420;2022-07-06T09:25:28;3.33;;;1.40;;
15708;SDS011;7954;51.914;8.420;2022-07-06T09:27:57;2.23;;;1.30;;
15708;SDS011;7954;51.914;8.420;2022-07-06T09:30:26;2.30;;;1.20;;
15708;SDS011;7954;51.914;8.420;2022-07-06T09:32:55;3.87;;;1.30;;
15708;SDS011;7954;51.914;8.420;2022-07-06T09:35:24;9.70;;;2.10;;
15708;SDS011;7954;51.914;8.420;2022-07-06T09:38:01;2.97;;;1.20;;
15708;SDS011;7954;51.914;8.420;2022-07-06T09:40:32;3.40;;;1.33;;
15708;SDS011;7954;51.914;8.420;2022-07-06T09:43:09;4.97;;;3.33;;
15708;SDS011;7954;51.914;8.420;2022-07-06T09:45:38;4.60;;;3.50;;
15708;SDS011;7954;51.914;8.420;2022-07-06T09:48:08;3.50;;;2.57;;
15708;SDS011;7954;51.914;8.420;2022-07-06T09:50:44;5.10;;;2.77;;
15708;SDS011;7954;51.914;8.420;2022-07-06T09:53:13;2.40;;;1.30;;
15708;SDS011;7954;51.914;8.420;2022-07-06T09:55:45;6.83;;;3.13;;
15708;SDS011;7954;51.914;8.420;2022-07-06T09:58:14;2.03;;;1.43;;
15708;SDS011;7954;51.914;8.420;2022-07-06T10:00:53;1.97;;;1.00;;
15708;SDS011;7954;51.914;8.420;2022-07-06T10:03:21;3.13;;;1.60;;
15708;SDS011;7954;51.914;8.420;2022-07-06T10:05:50;2.07;;;1.27;;
15708;SDS011;7954;51.914;8.420;2022-07-06T10:08:18;2.70;;;1.47;;
15708;SDS011;7954;51.914;8.420;2022-07-06T10:10:49;1.90;;;1.30;;
15708;SDS011;7954;51.914;8.420;2022-07-06T10:13:19;2.73;;;1.40;;
15708;SDS011;7954;51.914;8.420;2022-07-06T10:15:49;3.13;;;1.30;;
15708;SDS011;7954;51.914;8.420;2022-07-06T10:18:18;2.83;;;1.67;;
15708;SDS011;7954;51.914;8.420;2022-07-06T10:20:47;2.70;;;1.10;;
15708;SDS011;7954;51.914;8.420;2022-07-06T10:23:15;1.40;;;1.00;;
15708;SDS011;7954;51.914;8.420;2022-07-06T10:25:44;1.60;;;1.10;;
15708;SDS011;7954;51.914;8.420;2022-07-06T10:28:14;2.20;;;1.00;;
15708;SDS011;7954;51.914;8.420;2022-07-06T10:30:44;2.60;;;1.03;;
15708;SDS011;7954;51.914;8.420;2022-07-06T10:33:13;4.03;;;1.10;;
15708;SDS011;7954;51.914;8.420;2022-07-06T10:35:42;2.57;;;1.00;;
15708;SDS011;7954;51.914;8.420;2022-07-06T10:38:11;1.37;;;1.00;;
15708;SDS011;7954;51.914;8.420;2022-07-06T10:40:40;2.83;;;1.00;;
15708;SDS011;7954;51.914;8.420;2022-07-06T10:43:32;2.93;;;1.40;;
15708;SDS011;7954;51.914;8.420;2022-07-06T10:46:08;2.77;;;1.20;;
15708;SDS011;7954;51.914;8.420;2022-07-06T10:48:38;4.30;;;1.20;;
15708;SDS011;7954;51.914;8.420;2022-07-06T10:51:07;2.47;;;1.70;;
15708;SDS011;7954;51.914;8.420;2022-07-06T10:53:37;2.20;;;1.23;;
15708;SDS011;7954;51.914;8.420;2022-07-06T10:56:06;4.77;;;1.40;;
15708;SDS011;7954;51.914;8.420;2022-07-06T10:58:50;1.97;;;1.20;;
15708;SDS011;7954;51.914;8.420;2022-07-06T11:01:20;2.33;;;1.20;;
15708;SDS011;7954;51.914;8.420;2022-07-06T11:03:50;1.87;;;1.10;;
15708;SDS011;7954;51.914;8.420;2022-07-06T11:06:33;2.70;;;1.13;;
15708;SDS011;7954;51.914;8.420;2022-07-06T11:09:03;2.27;;;1.10;;
15708;SDS011;7954;51.914;8.420;2022-07-06T11:11:40;2.43;;;0.97;;
15708;SDS011;7954;51.914;8.420;2022-07-06T11:14:12;1.83;;;1.00;;
15708;SDS011;7954;51.914;8.420;2022-07-06T11:19:28;3.97;;;2.77;;
15708;SDS011;7954;51.914;8.420;2022-07-06T11:21:58;3.00;;;2.23;;
15708;SDS011;7954;51.914;8.420;2022-07-06T11:24:34;1.83;;;1.20;;
15708;SDS011;7954;51.914;8.420;2022-07-06T11:27:04;7.97;;;3.07;;
15708;SDS011;7954;51.914;8.420;2022-07-06T11:29:35;2.93;;;1.80;;
15708;SDS011;7954;51.914;8.420;2022-07-06T11:32:06;4.90;;;2.13;;
15708;SDS011;7954;51.914;8.420;2022-07-06T11:34:38;3.00;;;1.20;;
15708;SDS011;7954;51.914;8.420;2022-07-06T11:37:09;1.47;;;1.00;;
15708;SDS011;7954;51.914;8.420;2022-07-06T11:39:38;1.67;;;1.10;;
15708;SDS011;7954;51.914;8.420;2022-07-06T11:42:07;1.93;;;1.00;;
15708;SDS011;7954;51.914;8.420;2022-07-06T11:44:38;1.60;;;0.90;;
15708;SDS011;7954;51.914;8.420;2022-07-06T11:47:07;1.87;;;1.00;;
15708;SDS011;7954;51.914;8.420;2022-07-06T11:49:37;1.83;;;0.90;;
15708;SDS011;7954;51.914;8.420;2022-07-06T11:52:06;1.20;;;0.80;;
15708;SDS011;7954;51.914;8.420;2022-07-06T11:54:34;1.10;;;1.00;;
15708;SDS011;7954;51.914;8.420;2022-07-06T11:57:04;1.83;;;0.80;;
15708;SDS011;7954;51.914;8.420;2022-07-06T11:59:39;1.60;;;0.90;;
15708;SDS011;7954;51.914;8.420;2022-07-06T12:02:09;3.00;;;0.90;;
15708;SDS011;7954;51.914;8.420;2022-07-06T12:04:39;2.47;;;1.33;;
15708;SDS011;7954;51.914;8.420;2022-07-06T12:07:08;2.20;;;1.33;;
15708;SDS011;7954;51.914;8.420;2022-07-06T12:09:39;2.87;;;1.20;;
15708;SDS011;7954;51.914;8.420;2022-07-06T12:12:08;1.00;;;0.93;;
15708;SDS011;7954;51.914;8.420;2022-07-06T12:14:39;2.67;;;1.20;;
15708;SDS011;7954;51.914;8.420;2022-07-06T12:17:08;3.13;;;1.10;;
15708;SDS011;7954;51.914;8.420;2022-07-06T12:19:38;3.20;;;0.97;;
15708;SDS011;7954;51.914;8.420;2022-07-06T12:22:07;4.33;;;1.40;;
15708;SDS011;7954;51.914;8.420;2022-07-06T12:24:37;2.97;;;1.40;;
15708;SDS011;7954;51.914;8.420;2022-07-06T12:27:12;2.73;;;1.73;;
15708;SDS011;7954;51.914;8.420;2022-07-06T12:29:44;2.37;;;2.17;;
15708;SDS011;7954;51.914;8.420;2022-07-06T12:32:14;2.83;;;1.73;;
15708;SDS011;7954;51.914;8.420;2022-07-06T12:34:42;2.20;;;2.00;;
15708;SDS011;7954;51.914;8.420;2022-07-06T12:37:11;1.87;;;1.40;;
15708;SDS011;7954;51.914;8.420;2022-07-06T12:39:42;1.27;;;1.13;;
15708;SDS011;7954;51.914;8.420;2022-07-06T12:42:13;2.50;;;1.30;;
15708;SDS011;7954;51.914;8.420;2022-07-06T12:44:47;3.13;;;1.60;;
15708;SDS011;7954;51.914;8.420;2022-07-06T12:47:17;6.13;;;3.43;;
15708;SDS011;7954;51.914;8.420;2022-07-06T12:49:45;3.63;;;2.70;;
15708;SDS011;7954;51.914;8.420;2022-07-06T12:52:13;2.13;;;1.10;;
15708;SDS011;7954;51.914;8.420;2022-07-06T12:54:44;1.13;;;1.00;;
15708;SDS011;7954;51.914;8.420;2022-07-06T12:57:14;3.40;;;1.17;;
15708;SDS011;7954;51.914;8.420;2022-07-06T12:59:44;1.83;;;1.27;;
15708;SDS011;7954;51.914;8.420;2022-07-06T13:02:20;2.27;;;1.33;;
15708;SDS011;7954;51.914;8.420;2022-07-06T13:05:10;1.33;;;1.23;;
15708;SDS011;7954;51.914;8.420;2022-07-06T13:07:43;2.17;;;1.33;;
15708;SDS011;7954;51.914;8.420;2022-07-06T13:10:13;2.47;;;1.80;;
15708;SDS011;7954;51.914;8.420;2022-07-06T13:12:42;1.40;;;1.30;;
15708;SDS011;7954;51.914;8.420;2022-07-06T13:15:11;2.73;;;2.27;;
15708;SDS011;7954;51.914;8.420;2022-07-06T13:17:42;2.87;;;1.20;;
15708;SDS011;7954;51.914;8.420;2022-07-06T13:20:11;1.50;;;1.10;;
15708;SDS011;7954;51.914;8.420;2022-07-06T13:22:40;1.47;;;0.87;;
15708;SDS011;7954;51.914;8.420;2022-07-06T13:25:08;2.50;;;0.90;;
15708;SDS011;7954;51.914;8.420;2022-07-06T13:27:37;1.57;;;1.00;;
15708;SDS011;7954;51.914;8.420;2022-07-06T13:30:05;2.80;;;1.50;;
15708;SDS011;7954;51.914;8.420;2022-07-06T13:32:33;0.70;;;0.70;;
15708;SDS011;7954;51.914;8.420;2022-07-06T13:35:02;1.80;;;0.80;;
15708;SDS011;7954;51.914;8.420;2022-07-06T13:37:30;1.55;;;1.08;;
15708;SDS011;7954;51.914;8.420;2022-07-06T13:39:59;2.53;;;1.38;;
15708;SDS011;7954;51.914;8.420;2022-07-06T13:42:27;1.60;;;1.50;;
15708;SDS011;7954;51.914;8.420;2022-07-06T13:44:55;4.63;;;1.60;;
15708;SDS011;7954;51.914;8.420;2022-07-06T13:47:23;1.27;;;1.00;;
15708;SDS011;7954;51.914;8.420;2022-07-06T13:49:51;1.70;;;1.13;;
15708;SDS011;7954;51.914;8.420;2022-07-06T13:52:21;2.13;;;1.33;;
15708;SDS011;7954;51.914;8.420;2022-07-06T13:54:50;2.22;;;2.03;;
15708;SDS011;7954;51.914;8.420;2022-07-06T13:57:26;3.03;;;1.10;;
15708;SDS011;7954;51.914;8.420;2022-07-06T13:59:54;1.00;;;0.93;;
15708;SDS011;7954;51.914;8.420;2022-07-06T14:02:22;2.42;;;1.80;;
15708;SDS011;7954;51.914;8.420;2022-07-06T14:04:50;1.27;;;0.90;;
15708;SDS011;7954;51.914;8.420;2022-07-06T14:07:18;1.10;;;1.00;;
15708;SDS011;7954;51.914;8.420;2022-07-06T14:09:48;1.95;;;1.60;;
15708;SDS011;7954;51.914;8.420;2022-07-06T14:12:18;1.30;;;1.20;;
15708;SDS011;7954;51.914;8.420;2022-07-06T14:14:48;0.95;;;0.90;;
15708;SDS011;7954;51.914;8.420;2022-07-06T14:17:16;2.50;;;1.42;;
15708;SDS011;7954;51.914;8.420;2022-07-06T14:19:44;1.80;;;1.67;;
15708;SDS011;7954;51.914;8.420;2022-07-06T14:22:13;2.38;;;1.60;;
15708;SDS011;7954;51.914;8.420;2022-07-06T14:24:41;1.63;;;1.23;;
15708;SDS011;7954;51.914;8.420;2022-07-06T14:27:11;4.50;;;1.70;;
15708;SDS011;7954;51.914;8.420;2022-07-06T14:29:39;1.30;;;1.20;;
15708;SDS011;7954;51.914;8.420;2022-07-06T14:32:07;1.07;;;0.90;;
15708;SDS011;7954;51.914;8.420;2022-07-06T14:34:35;2.37;;;1.23;;
15708;SDS011;7954;51.914;8.420;2022-07-06T14:37:03;1.33;;;0.93;;
15708;SDS011;7954;51.914;8.420;2022-07-06T14:39:31;2.90;;;1.00;;
15708;SDS011;7954;51.914;8.420;2022-07-06T14:41:59;1.88;;;0.93;;
15708;SDS011;7954;51.914;8.420;2022-07-06T14:44:28;0.83;;;0.73;;
15708;SDS011;7954;51.914;8.420;2022-07-06T14:46:56;1.33;;;0.90;;
15708;SDS011;7954;51.914;8.420;2022-07-06T14:49:24;0.80;;;0.80;;
15708;SDS011;7954;51.914;8.420;2022-07-06T14:51:52;1.20;;;0.90;;
15708;SDS011;7954;51.914;8.420;2022-07-06T14:54:20;1.10;;;0.80;;
15708;SDS011;7954;51.914;8.420;2022-07-06T14:56:48;0.97;;;0.93;;
15708;SDS011;7954;51.914;8.420;2022-07-06T14:59:16;0.90;;;0.90;;
15708;SDS011;7954;51.914;8.420;2022-07-06T15:01:52;1.07;;;0.73;;
15708;SDS011;7954;51.914;8.420;2022-07-06T15:04:20;0.70;;;0.70;;
15708;SDS011;7954;51.914;8.420;2022-07-06T15:06:48;1.67;;;1.40;;
15708;SDS011;7954;51.914;8.420;2022-07-06T15:09:22;0.90;;;0.80;;
15708;SDS011;7954;51.914;8.420;2022-07-06T15:11:50;1.57;;;0.80;;
15708;SDS011;7954;51.914;8.420;2022-07-06T15:14:18;1.73;;;1.40;;
15708;SDS011;7954;51.914;8.420;2022-07-06T15:16:46;1.00;;;0.90;;